sensor_id;sensor_type;location;lat;lon;timestamp;P1;durP1;ratioP1;P2;durP2;ratioP2
40951;SDS011;26682;51.660;19.338;2022-12-15T00:01:43;90.85;;;42.40;;
40951;SDS011;26682;51.660;19.338;2022-12-15T00:03:49;83.25;;;41.80;;
40951;SDS011;26682;51.660;19.338;2022-12-15T00:05:55;88.20;;;41.15;;
40951;SDS011;26682;51.660;19.338;2022-12-15T00:08:07;86.97;;;41.95;;
40951;SDS011;26682;51.660;19.338;2022-12-15T00:10:14;86.28;;;41.60;;
40951;SDS011;26682;51.660;19.338;2022-12-15T00:12:20;83.15;;;39.22;;
40951;SDS011;26682;51.660;19.338;2022-12-15T00:14:26;77.78;;;38.90;;
40951;SDS011;26682;51.660;19.338;2022-12-15T00:16:32;78.20;;;38.75;;
40951;SDS011;26682;51.660;19.338;2022-12-15T00:18:38;79.53;;;38.92;;
40951;SDS011;26682;51.660;19.338;2022-12-15T00:20:44;74.10;;;38.22;;
40951;SDS011;26682;51.660;19.338;2022-12-15T00:22:50;82.53;;;40.78;;
40951;SDS011;26682;51.660;19.338;2022-12-15T00:24:56;73.93;;;38.75;;
40951;SDS011;26682;51.660;19.338;2022-12-15T00:27:01;73.78;;;37.28;;
40951;SDS011;26682;51.660;19.338;2022-12-15T00:29:08;79.22;;;38.83;;
40951;SDS011;26682;51.660;19.338;2022-12-15T00:31:14;75.77;;;38.83;;
40951;SDS011;26682;51.660;19.338;2022-12-15T00:33:21;80.32;;;39.15;;
40951;SDS011;26682;51.660;19.338;2022-12-15T00:35:26;76.88;;;36.72;;
40951;SDS011;26682;51.660;19.338;2022-12-15T00:37:32;82.90;;;40.58;;
40951;SDS011;26682;51.660;19.338;2022-12-15T00:39:37;78.13;;;39.33;;
40951;SDS011;26682;51.660;19.338;2022-12-15T00:43:12;81.47;;;42.95;;
40951;SDS011;26682;51.660;19.338;2022-12-15T00:45:00;112.32;;;57.25;;
40951;SDS011;26682;51.660;19.338;2022-12-15T00:46:48;85.85;;;44.38;;
40951;SDS011;26682;51.660;19.338;2022-12-15T00:48:41;83.55;;;40.45;;
40951;SDS011;26682;51.660;19.338;2022-12-15T00:50:29;150.93;;;62.83;;
40951;SDS011;26682;51.660;19.338;2022-12-15T00:52:34;161.50;;;67.88;;
40951;SDS011;26682;51.660;19.338;2022-12-15T00:54:40;123.47;;;55.88;;
40951;SDS011;26682;51.660;19.338;2022-12-15T00:56:46;86.43;;;41.17;;
40951;SDS011;26682;51.660;19.338;2022-12-15T00:58:52;81.38;;;40.22;;
40951;SDS011;26682;51.660;19.338;2022-12-15T01:01:04;78.13;;;39.88;;
40951;SDS011;26682;51.660;19.338;2022-12-15T01:03:15;86.35;;;42.15;;
40951;SDS011;26682;51.660;19.338;2022-12-15T01:05:26;80.30;;;39.53;;
40951;SDS011;26682;51.660;19.338;2022-12-15T01:07:32;82.82;;;39.25;;
40951;SDS011;26682;51.660;19.338;2022-12-15T01:09:38;81.20;;;40.95;;
40951;SDS011;26682;51.660;19.338;2022-12-15T01:11:44;79.22;;;41.05;;
40951;SDS011;26682;51.660;19.338;2022-12-15T01:13:50;85.43;;;42.85;;
40951;SDS011;26682;51.660;19.338;2022-12-15T01:15:56;83.15;;;41.38;;
40951;SDS011;26682;51.660;19.338;2022-12-15T01:18:02;84.35;;;42.33;;
40951;SDS011;26682;51.660;19.338;2022-12-15T01:20:08;105.88;;;65.63;;
40951;SDS011;26682;51.660;19.338;2022-12-15T01:22:05;103.45;;;54.72;;
40951;SDS011;26682;51.660;19.338;2022-12-15T01:23:53;88.60;;;44.63;;
40951;SDS011;26682;51.660;19.338;2022-12-15T01:25:40;83.43;;;43.20;;
40951;SDS011;26682;51.660;19.338;2022-12-15T01:27:27;79.30;;;42.50;;
40951;SDS011;26682;51.660;19.338;2022-12-15T01:29:14;88.03;;;43.57;;
40951;SDS011;26682;51.660;19.338;2022-12-15T01:31:01;74.97;;;35.08;;
40951;SDS011;26682;51.660;19.338;2022-12-15T01:32:57;98.40;;;47.47;;
40951;SDS011;26682;51.660;19.338;2022-12-15T01:34:44;92.95;;;45.90;;
40951;SDS011;26682;51.660;19.338;2022-12-15T01:36:31;90.30;;;46.28;;
40951;SDS011;26682;51.660;19.338;2022-12-15T01:38:19;96.80;;;45.65;;
40951;SDS011;26682;51.660;19.338;2022-12-15T01:40:06;124.73;;;55.23;;
40951;SDS011;26682;51.660;19.338;2022-12-15T01:42:15;111.15;;;52.42;;
40951;SDS011;26682;51.660;19.338;2022-12-15T01:46:08;92.28;;;43.58;;
40951;SDS011;26682;51.660;19.338;2022-12-15T01:48:02;99.28;;;49.25;;
40951;SDS011;26682;51.660;19.338;2022-12-15T01:49:53;105.47;;;48.97;;
40951;SDS011;26682;51.660;19.338;2022-12-15T01:51:42;102.93;;;49.17;;
40951;SDS011;26682;51.660;19.338;2022-12-15T01:53:34;121.47;;;59.33;;
40951;SDS011;26682;51.660;19.338;2022-12-15T01:55:27;128.65;;;65.63;;
40951;SDS011;26682;51.660;19.338;2022-12-15T01:57:23;122.38;;;63.00;;
40951;SDS011;26682;51.660;19.338;2022-12-15T01:59:22;118.90;;;60.45;;
40951;SDS011;26682;51.660;19.338;2022-12-15T02:01:14;104.53;;;52.80;;
40951;SDS011;26682;51.660;19.338;2022-12-15T02:03:02;106.63;;;53.70;;
40951;SDS011;26682;51.660;19.338;2022-12-15T02:04:51;102.30;;;50.10;;
40951;SDS011;26682;51.660;19.338;2022-12-15T02:06:42;107.15;;;48.80;;
40951;SDS011;26682;51.660;19.338;2022-12-15T02:08:29;83.82;;;39.47;;
40951;SDS011;26682;51.660;19.338;2022-12-15T02:14:19;109.55;;;51.78;;
40951;SDS011;26682;51.660;19.338;2022-12-15T02:20:34;100.35;;;48.38;;
40951;SDS011;26682;51.660;19.338;2022-12-15T02:22:38;76.90;;;37.97;;
40951;SDS011;26682;51.660;19.338;2022-12-15T02:24:45;98.93;;;49.10;;
40951;SDS011;26682;51.660;19.338;2022-12-15T02:27:42;122.57;;;54.80;;
40951;SDS011;26682;51.660;19.338;2022-12-15T02:29:30;94.20;;;45.72;;
40951;SDS011;26682;51.660;19.338;2022-12-15T02:31:36;97.28;;;46.03;;
40951;SDS011;26682;51.660;19.338;2022-12-15T02:33:50;96.53;;;45.67;;
40951;SDS011;26682;51.660;19.338;2022-12-15T02:35:48;90.10;;;44.88;;
40951;SDS011;26682;51.660;19.338;2022-12-15T02:37:43;89.80;;;44.83;;
40951;SDS011;26682;51.660;19.338;2022-12-15T02:39:35;87.50;;;44.55;;
40951;SDS011;26682;51.660;19.338;2022-12-15T02:41:33;91.97;;;46.67;;
40951;SDS011;26682;51.660;19.338;2022-12-15T02:43:22;94.55;;;46.15;;
40951;SDS011;26682;51.660;19.338;2022-12-15T02:45:16;98.53;;;47.55;;
40951;SDS011;26682;51.660;19.338;2022-12-15T02:47:16;94.25;;;49.90;;
40951;SDS011;26682;51.660;19.338;2022-12-15T02:51:16;107.95;;;51.88;;
40951;SDS011;26682;51.660;19.338;2022-12-15T03:00:07;107.93;;;54.17;;
40951;SDS011;26682;51.660;19.338;2022-12-15T03:01:55;113.72;;;56.95;;
40951;SDS011;26682;51.660;19.338;2022-12-15T03:03:46;117.07;;;54.78;;
40951;SDS011;26682;51.660;19.338;2022-12-15T03:05:35;107.40;;;54.25;;
40951;SDS011;26682;51.660;19.338;2022-12-15T03:07:23;112.43;;;53.92;;
40951;SDS011;26682;51.660;19.338;2022-12-15T03:09:13;117.10;;;57.70;;
40951;SDS011;26682;51.660;19.338;2022-12-15T03:11:00;114.50;;;57.35;;
40951;SDS011;26682;51.660;19.338;2022-12-15T03:12:48;114.10;;;56.78;;
40951;SDS011;26682;51.660;19.338;2022-12-15T03:16:22;108.75;;;49.15;;
40951;SDS011;26682;51.660;19.338;2022-12-15T03:18:10;102.07;;;50.13;;
40951;SDS011;26682;51.660;19.338;2022-12-15T03:19:57;108.30;;;51.13;;
40951;SDS011;26682;51.660;19.338;2022-12-15T03:21:44;76.57;;;40.97;;
40951;SDS011;26682;51.660;19.338;2022-12-15T03:23:31;101.30;;;50.80;;
40951;SDS011;26682;51.660;19.338;2022-12-15T03:25:19;107.30;;;52.30;;
40951;SDS011;26682;51.660;19.338;2022-12-15T03:27:07;99.13;;;51.47;;
40951;SDS011;26682;51.660;19.338;2022-12-15T03:28:54;81.47;;;40.20;;
40951;SDS011;26682;51.660;19.338;2022-12-15T03:30:41;109.32;;;53.20;;
40951;SDS011;26682;51.660;19.338;2022-12-15T03:32:30;109.97;;;53.38;;
40951;SDS011;26682;51.660;19.338;2022-12-15T03:34:17;112.45;;;55.63;;
40951;SDS011;26682;51.660;19.338;2022-12-15T03:36:04;103.87;;;54.00;;
40951;SDS011;26682;51.660;19.338;2022-12-15T03:37:52;116.13;;;54.20;;
40951;SDS011;26682;51.660;19.338;2022-12-15T03:39:39;110.97;;;56.40;;
40951;SDS011;26682;51.660;19.338;2022-12-15T03:41:26;114.17;;;56.00;;
40951;SDS011;26682;51.660;19.338;2022-12-15T03:43:13;116.65;;;57.88;;
40951;SDS011;26682;51.660;19.338;2022-12-15T03:45:00;106.37;;;53.10;;
40951;SDS011;26682;51.660;19.338;2022-12-15T03:46:47;111.22;;;51.80;;
40951;SDS011;26682;51.660;19.338;2022-12-15T03:48:35;108.10;;;53.20;;
40951;SDS011;26682;51.660;19.338;2022-12-15T03:50:23;88.50;;;44.38;;
40951;SDS011;26682;51.660;19.338;2022-12-15T03:52:12;117.18;;;56.42;;
40951;SDS011;26682;51.660;19.338;2022-12-15T03:53:59;111.05;;;53.90;;
40951;SDS011;26682;51.660;19.338;2022-12-15T03:55:46;117.83;;;55.27;;
40951;SDS011;26682;51.660;19.338;2022-12-15T03:57:33;121.00;;;58.58;;
40951;SDS011;26682;51.660;19.338;2022-12-15T03:59:21;120.13;;;58.47;;
40951;SDS011;26682;51.660;19.338;2022-12-15T04:01:09;94.40;;;43.80;;
40951;SDS011;26682;51.660;19.338;2022-12-15T04:02:58;117.40;;;56.90;;
40951;SDS011;26682;51.660;19.338;2022-12-15T04:04:45;117.65;;;57.75;;
40951;SDS011;26682;51.660;19.338;2022-12-15T04:06:34;122.85;;;59.58;;
40951;SDS011;26682;51.660;19.338;2022-12-15T04:08:21;128.10;;;61.30;;
40951;SDS011;26682;51.660;19.338;2022-12-15T04:10:12;110.03;;;54.80;;
40951;SDS011;26682;51.660;19.338;2022-12-15T04:11:59;116.85;;;56.45;;
40951;SDS011;26682;51.660;19.338;2022-12-15T04:13:48;107.25;;;54.80;;
40951;SDS011;26682;51.660;19.338;2022-12-15T04:15:36;110.55;;;56.38;;
40951;SDS011;26682;51.660;19.338;2022-12-15T04:17:24;113.72;;;53.53;;
40951;SDS011;26682;51.660;19.338;2022-12-15T04:19:11;104.23;;;53.70;;
40951;SDS011;26682;51.660;19.338;2022-12-15T04:21:17;121.57;;;55.47;;
40951;SDS011;26682;51.660;19.338;2022-12-15T04:23:04;110.50;;;54.03;;
40951;SDS011;26682;51.660;19.338;2022-12-15T04:24:54;109.90;;;51.47;;
40951;SDS011;26682;51.660;19.338;2022-12-15T04:27:01;108.22;;;52.22;;
40951;SDS011;26682;51.660;19.338;2022-12-15T04:29:06;116.78;;;54.70;;
40951;SDS011;26682;51.660;19.338;2022-12-15T04:31:16;111.93;;;53.55;;
40951;SDS011;26682;51.660;19.338;2022-12-15T04:33:27;114.90;;;54.63;;
40951;SDS011;26682;51.660;19.338;2022-12-15T04:35:33;119.03;;;52.97;;
40951;SDS011;26682;51.660;19.338;2022-12-15T04:37:39;111.38;;;55.47;;
40951;SDS011;26682;51.660;19.338;2022-12-15T04:39:46;116.03;;;53.13;;
40951;SDS011;26682;51.660;19.338;2022-12-15T04:41:54;123.80;;;59.90;;
40951;SDS011;26682;51.660;19.338;2022-12-15T04:44:04;164.55;;;76.45;;
40951;SDS011;26682;51.660;19.338;2022-12-15T04:46:11;129.57;;;62.65;;
40951;SDS011;26682;51.660;19.338;2022-12-15T04:48:18;120.50;;;59.17;;
40951;SDS011;26682;51.660;19.338;2022-12-15T04:50:24;120.00;;;54.70;;
40951;SDS011;26682;51.660;19.338;2022-12-15T04:52:30;114.60;;;55.58;;
40951;SDS011;26682;51.660;19.338;2022-12-15T04:54:37;112.10;;;56.28;;
40951;SDS011;26682;51.660;19.338;2022-12-15T04:56:42;114.50;;;56.95;;
40951;SDS011;26682;51.660;19.338;2022-12-15T04:58:49;130.80;;;57.35;;
40951;SDS011;26682;51.660;19.338;2022-12-15T05:00:58;111.88;;;52.40;;
40951;SDS011;26682;51.660;19.338;2022-12-15T05:03:04;113.93;;;55.08;;
40951;SDS011;26682;51.660;19.338;2022-12-15T05:05:12;108.35;;;52.47;;
40951;SDS011;26682;51.660;19.338;2022-12-15T05:07:18;112.55;;;55.40;;
40951;SDS011;26682;51.660;19.338;2022-12-15T05:09:24;114.65;;;53.80;;
40951;SDS011;26682;51.660;19.338;2022-12-15T05:11:30;114.43;;;54.87;;
40951;SDS011;26682;51.660;19.338;2022-12-15T05:13:36;113.10;;;54.47;;
40951;SDS011;26682;51.660;19.338;2022-12-15T05:15:41;120.18;;;55.25;;
40951;SDS011;26682;51.660;19.338;2022-12-15T05:17:48;121.28;;;57.45;;
40951;SDS011;26682;51.660;19.338;2022-12-15T05:19:54;120.63;;;59.95;;
40951;SDS011;26682;51.660;19.338;2022-12-15T05:21:59;126.53;;;61.05;;
40951;SDS011;26682;51.660;19.338;2022-12-15T05:24:05;135.18;;;61.72;;
40951;SDS011;26682;51.660;19.338;2022-12-15T05:26:11;129.05;;;61.55;;
40951;SDS011;26682;51.660;19.338;2022-12-15T05:28:18;116.47;;;56.83;;
40951;SDS011;26682;51.660;19.338;2022-12-15T05:30:23;114.63;;;55.85;;
40951;SDS011;26682;51.660;19.338;2022-12-15T05:32:30;120.40;;;56.92;;
40951;SDS011;26682;51.660;19.338;2022-12-15T05:34:22;111.78;;;55.85;;
40951;SDS011;26682;51.660;19.338;2022-12-15T05:36:14;122.90;;;56.90;;
40951;SDS011;26682;51.660;19.338;2022-12-15T05:38:03;115.57;;;55.07;;
40951;SDS011;26682;51.660;19.338;2022-12-15T05:39:51;125.20;;;54.05;;
40951;SDS011;26682;51.660;19.338;2022-12-15T05:41:38;135.13;;;59.15;;
40951;SDS011;26682;51.660;19.338;2022-12-15T05:43:26;92.10;;;42.38;;
40951;SDS011;26682;51.660;19.338;2022-12-15T05:45:14;130.93;;;60.10;;
40951;SDS011;26682;51.660;19.338;2022-12-15T05:47:02;126.05;;;57.28;;
40951;SDS011;26682;51.660;19.338;2022-12-15T05:48:50;119.72;;;58.58;;
40951;SDS011;26682;51.660;19.338;2022-12-15T05:50:37;124.00;;;55.97;;
40951;SDS011;26682;51.660;19.338;2022-12-15T05:54:13;91.03;;;42.25;;
40951;SDS011;26682;51.660;19.338;2022-12-15T05:56:03;115.38;;;56.85;;
40951;SDS011;26682;51.660;19.338;2022-12-15T05:57:53;118.80;;;54.97;;
40951;SDS011;26682;51.660;19.338;2022-12-15T05:59:40;128.20;;;57.35;;
40951;SDS011;26682;51.660;19.338;2022-12-15T06:01:27;120.20;;;56.13;;
40951;SDS011;26682;51.660;19.338;2022-12-15T06:03:17;114.70;;;54.50;;
40951;SDS011;26682;51.660;19.338;2022-12-15T06:05:04;116.13;;;54.58;;
40951;SDS011;26682;51.660;19.338;2022-12-15T06:06:52;119.72;;;57.35;;
40951;SDS011;26682;51.660;19.338;2022-12-15T06:08:40;118.97;;;54.53;;
40951;SDS011;26682;51.660;19.338;2022-12-15T06:10:28;121.78;;;56.05;;
40951;SDS011;26682;51.660;19.338;2022-12-15T06:12:15;114.20;;;55.47;;
40951;SDS011;26682;51.660;19.338;2022-12-15T06:14:03;121.10;;;54.53;;
40951;SDS011;26682;51.660;19.338;2022-12-15T06:16:32;117.72;;;55.40;;
40951;SDS011;26682;51.660;19.338;2022-12-15T06:18:02;126.07;;;57.15;;
40951;SDS011;26682;51.660;19.338;2022-12-15T06:19:49;122.93;;;56.30;;
40951;SDS011;26682;51.660;19.338;2022-12-15T06:21:36;117.03;;;56.00;;
40951;SDS011;26682;51.660;19.338;2022-12-15T06:23:24;127.03;;;58.20;;
40951;SDS011;26682;51.660;19.338;2022-12-15T06:25:12;118.88;;;55.65;;
40951;SDS011;26682;51.660;19.338;2022-12-15T06:26:59;125.75;;;58.90;;
40951;SDS011;26682;51.660;19.338;2022-12-15T06:28:46;120.80;;;57.20;;
40951;SDS011;26682;51.660;19.338;2022-12-15T06:30:34;123.88;;;55.88;;
40951;SDS011;26682;51.660;19.338;2022-12-15T06:32:21;119.63;;;56.00;;
40951;SDS011;26682;51.660;19.338;2022-12-15T06:34:12;115.97;;;54.70;;
40951;SDS011;26682;51.660;19.338;2022-12-15T06:36:02;122.57;;;55.97;;
40951;SDS011;26682;51.660;19.338;2022-12-15T06:37:53;118.75;;;56.05;;
40951;SDS011;26682;51.660;19.338;2022-12-15T06:39:40;122.63;;;57.08;;
40951;SDS011;26682;51.660;19.338;2022-12-15T06:41:28;128.07;;;56.80;;
40951;SDS011;26682;51.660;19.338;2022-12-15T06:43:16;133.73;;;58.40;;
40951;SDS011;26682;51.660;19.338;2022-12-15T06:45:03;135.43;;;61.08;;
40951;SDS011;26682;51.660;19.338;2022-12-15T06:46:51;132.20;;;59.28;;
40951;SDS011;26682;51.660;19.338;2022-12-15T06:48:38;127.45;;;58.83;;
40951;SDS011;26682;51.660;19.338;2022-12-15T06:50:27;129.43;;;61.88;;
40951;SDS011;26682;51.660;19.338;2022-12-15T06:52:15;133.02;;;63.28;;
40951;SDS011;26682;51.660;19.338;2022-12-15T06:54:02;134.27;;;62.83;;
40951;SDS011;26682;51.660;19.338;2022-12-15T06:55:49;136.77;;;65.88;;
40951;SDS011;26682;51.660;19.338;2022-12-15T06:57:37;142.38;;;66.47;;
40951;SDS011;26682;51.660;19.338;2022-12-15T06:59:24;121.03;;;57.03;;
40951;SDS011;26682;51.660;19.338;2022-12-15T07:01:11;89.72;;;44.42;;
40951;SDS011;26682;51.660;19.338;2022-12-15T07:02:59;118.85;;;55.28;;
40951;SDS011;26682;51.660;19.338;2022-12-15T07:04:46;126.05;;;58.25;;
40951;SDS011;26682;51.660;19.338;2022-12-15T07:06:33;130.27;;;61.07;;
40951;SDS011;26682;51.660;19.338;2022-12-15T07:08:22;118.75;;;56.78;;
40951;SDS011;26682;51.660;19.338;2022-12-15T07:10:16;126.97;;;59.50;;
40951;SDS011;26682;51.660;19.338;2022-12-15T07:12:04;132.90;;;64.25;;
40951;SDS011;26682;51.660;19.338;2022-12-15T07:13:51;128.93;;;63.30;;
40951;SDS011;26682;51.660;19.338;2022-12-15T07:15:39;135.73;;;61.53;;
40951;SDS011;26682;51.660;19.338;2022-12-15T07:17:27;133.40;;;60.28;;
40951;SDS011;26682;51.660;19.338;2022-12-15T07:19:14;132.40;;;61.78;;
40951;SDS011;26682;51.660;19.338;2022-12-15T07:21:05;135.43;;;62.17;;
40951;SDS011;26682;51.660;19.338;2022-12-15T07:22:54;127.18;;;58.75;;
40951;SDS011;26682;51.660;19.338;2022-12-15T07:24:42;132.38;;;59.08;;
40951;SDS011;26682;51.660;19.338;2022-12-15T07:26:29;127.53;;;59.85;;
40951;SDS011;26682;51.660;19.338;2022-12-15T07:28:16;131.65;;;59.30;;
40951;SDS011;26682;51.660;19.338;2022-12-15T07:30:13;138.23;;;59.67;;
40951;SDS011;26682;51.660;19.338;2022-12-15T07:32:01;125.13;;;58.72;;
40951;SDS011;26682;51.660;19.338;2022-12-15T07:33:49;127.47;;;60.08;;
40951;SDS011;26682;51.660;19.338;2022-12-15T07:35:38;137.10;;;61.10;;
40951;SDS011;26682;51.660;19.338;2022-12-15T07:37:28;132.68;;;61.85;;
40951;SDS011;26682;51.660;19.338;2022-12-15T07:39:15;133.48;;;61.47;;
40951;SDS011;26682;51.660;19.338;2022-12-15T07:41:04;120.57;;;58.53;;
40951;SDS011;26682;51.660;19.338;2022-12-15T07:42:52;118.15;;;58.15;;
40951;SDS011;26682;51.660;19.338;2022-12-15T07:44:40;133.90;;;65.53;;
40951;SDS011;26682;51.660;19.338;2022-12-15T07:46:27;135.82;;;64.22;;
40951;SDS011;26682;51.660;19.338;2022-12-15T07:48:15;122.03;;;59.75;;
40951;SDS011;26682;51.660;19.338;2022-12-15T07:50:02;123.23;;;60.93;;
40951;SDS011;26682;51.660;19.338;2022-12-15T07:51:50;135.82;;;65.03;;
40951;SDS011;26682;51.660;19.338;2022-12-15T07:53:37;145.13;;;68.50;;
40951;SDS011;26682;51.660;19.338;2022-12-15T07:55:25;130.00;;;60.78;;
40951;SDS011;26682;51.660;19.338;2022-12-15T07:59:20;134.00;;;64.50;;
40951;SDS011;26682;51.660;19.338;2022-12-15T08:01:08;141.93;;;70.63;;
40951;SDS011;26682;51.660;19.338;2022-12-15T08:03:01;112.43;;;57.47;;
40951;SDS011;26682;51.660;19.338;2022-12-15T08:04:48;123.72;;;60.03;;
40951;SDS011;26682;51.660;19.338;2022-12-15T08:06:35;115.68;;;60.97;;
40951;SDS011;26682;51.660;19.338;2022-12-15T08:08:23;122.80;;;62.60;;
40951;SDS011;26682;51.660;19.338;2022-12-15T08:10:11;117.65;;;60.08;;
40951;SDS011;26682;51.660;19.338;2022-12-15T08:11:58;130.85;;;63.70;;
40951;SDS011;26682;51.660;19.338;2022-12-15T08:13:46;131.05;;;61.92;;
40951;SDS011;26682;51.660;19.338;2022-12-15T08:15:54;126.07;;;60.95;;
40951;SDS011;26682;51.660;19.338;2022-12-15T08:17:42;125.55;;;62.72;;
40951;SDS011;26682;51.660;19.338;2022-12-15T08:19:30;124.53;;;61.08;;
40951;SDS011;26682;51.660;19.338;2022-12-15T08:21:17;121.47;;;57.78;;
40951;SDS011;26682;51.660;19.338;2022-12-15T08:23:04;122.45;;;58.22;;
40951;SDS011;26682;51.660;19.338;2022-12-15T08:26:40;124.13;;;59.08;;
40951;SDS011;26682;51.660;19.338;2022-12-15T08:28:29;124.40;;;62.63;;
40951;SDS011;26682;51.660;19.338;2022-12-15T08:30:18;123.72;;;59.35;;
40951;SDS011;26682;51.660;19.338;2022-12-15T08:32:05;101.97;;;49.33;;
40951;SDS011;26682;51.660;19.338;2022-12-15T08:33:53;135.65;;;60.08;;
40951;SDS011;26682;51.660;19.338;2022-12-15T08:35:41;137.65;;;65.72;;
40951;SDS011;26682;51.660;19.338;2022-12-15T08:37:42;133.40;;;62.72;;
40951;SDS011;26682;51.660;19.338;2022-12-15T08:39:31;128.95;;;62.53;;
40951;SDS011;26682;51.660;19.338;2022-12-15T08:41:19;136.82;;;64.97;;
40951;SDS011;26682;51.660;19.338;2022-12-15T08:43:09;130.07;;;61.17;;
40951;SDS011;26682;51.660;19.338;2022-12-15T08:44:56;91.63;;;46.78;;
40951;SDS011;26682;51.660;19.338;2022-12-15T08:46:43;143.18;;;66.90;;
40951;SDS011;26682;51.660;19.338;2022-12-15T08:48:30;133.82;;;67.20;;
40951;SDS011;26682;51.660;19.338;2022-12-15T08:50:18;137.80;;;68.72;;
40951;SDS011;26682;51.660;19.338;2022-12-15T08:52:06;136.43;;;67.03;;
40951;SDS011;26682;51.660;19.338;2022-12-15T08:53:53;143.90;;;70.40;;
40951;SDS011;26682;51.660;19.338;2022-12-15T08:55:41;152.38;;;74.85;;
40951;SDS011;26682;51.660;19.338;2022-12-15T08:57:29;139.65;;;69.47;;
40951;SDS011;26682;51.660;19.338;2022-12-15T08:59:16;142.75;;;71.22;;
40951;SDS011;26682;51.660;19.338;2022-12-15T09:01:09;133.63;;;66.32;;
40951;SDS011;26682;51.660;19.338;2022-12-15T09:03:08;144.95;;;69.22;;
40951;SDS011;26682;51.660;19.338;2022-12-15T09:04:55;135.77;;;68.53;;
40951;SDS011;26682;51.660;19.338;2022-12-15T09:06:42;140.57;;;69.93;;
40951;SDS011;26682;51.660;19.338;2022-12-15T09:08:34;141.30;;;67.65;;
40951;SDS011;26682;51.660;19.338;2022-12-15T09:10:22;143.90;;;71.80;;
40951;SDS011;26682;51.660;19.338;2022-12-15T09:12:10;149.85;;;75.38;;
40951;SDS011;26682;51.660;19.338;2022-12-15T09:13:58;140.60;;;69.47;;
40951;SDS011;26682;51.660;19.338;2022-12-15T09:15:45;142.38;;;69.57;;
40951;SDS011;26682;51.660;19.338;2022-12-15T09:17:59;137.80;;;65.85;;
40951;SDS011;26682;51.660;19.338;2022-12-15T09:19:47;147.43;;;71.50;;
40951;SDS011;26682;51.660;19.338;2022-12-15T09:21:34;146.90;;;71.88;;
40951;SDS011;26682;51.660;19.338;2022-12-15T09:23:22;136.48;;;67.68;;
40951;SDS011;26682;51.660;19.338;2022-12-15T09:25:10;137.07;;;66.07;;
40951;SDS011;26682;51.660;19.338;2022-12-15T09:26:57;101.00;;;49.35;;
40951;SDS011;26682;51.660;19.338;2022-12-15T09:28:45;144.57;;;68.53;;
40951;SDS011;26682;51.660;19.338;2022-12-15T09:30:36;134.90;;;67.95;;
40951;SDS011;26682;51.660;19.338;2022-12-15T09:32:23;138.07;;;70.07;;
40951;SDS011;26682;51.660;19.338;2022-12-15T09:34:13;149.25;;;66.95;;
40951;SDS011;26682;51.660;19.338;2022-12-15T09:36:02;158.02;;;73.47;;
40951;SDS011;26682;51.660;19.338;2022-12-15T09:37:50;153.23;;;74.13;;
40951;SDS011;26682;51.660;19.338;2022-12-15T09:39:37;130.82;;;66.68;;
40951;SDS011;26682;51.660;19.338;2022-12-15T09:41:26;131.10;;;64.32;;
40951;SDS011;26682;51.660;19.338;2022-12-15T09:43:21;142.35;;;68.78;;
40951;SDS011;26682;51.660;19.338;2022-12-15T09:45:23;159.75;;;76.65;;
40951;SDS011;26682;51.660;19.338;2022-12-15T09:47:27;146.68;;;70.60;;
40951;SDS011;26682;51.660;19.338;2022-12-15T09:51:32;138.05;;;69.25;;
40951;SDS011;26682;51.660;19.338;2022-12-15T09:53:30;145.15;;;70.25;;
40951;SDS011;26682;51.660;19.338;2022-12-15T09:55:38;133.30;;;67.38;;
40951;SDS011;26682;51.660;19.338;2022-12-15T10:03:16;131.80;;;65.35;;
40951;SDS011;26682;51.660;19.338;2022-12-15T10:07:39;131.93;;;67.38;;
40951;SDS011;26682;51.660;19.338;2022-12-15T10:09:36;135.63;;;67.40;;
40951;SDS011;26682;51.660;19.338;2022-12-15T10:15:45;128.23;;;67.47;;
40951;SDS011;26682;51.660;19.338;2022-12-15T10:17:46;148.00;;;68.90;;
40951;SDS011;26682;51.660;19.338;2022-12-15T10:20:21;139.13;;;68.93;;
40951;SDS011;26682;51.660;19.338;2022-12-15T10:22:01;152.65;;;72.85;;
40951;SDS011;26682;51.660;19.338;2022-12-15T10:23:48;136.63;;;68.15;;
40951;SDS011;26682;51.660;19.338;2022-12-15T10:25:37;133.07;;;65.30;;
40951;SDS011;26682;51.660;19.338;2022-12-15T10:29:46;149.93;;;71.80;;
40951;SDS011;26682;51.660;19.338;2022-12-15T10:31:52;131.23;;;67.95;;
40951;SDS011;26682;51.660;19.338;2022-12-15T10:33:43;155.00;;;68.40;;
40951;SDS011;26682;51.660;19.338;2022-12-15T10:35:37;152.77;;;73.47;;
40951;SDS011;26682;51.660;19.338;2022-12-15T10:37:29;134.30;;;67.25;;
40951;SDS011;26682;51.660;19.338;2022-12-15T10:39:18;137.90;;;68.85;;
40951;SDS011;26682;51.660;19.338;2022-12-15T10:41:10;146.40;;;71.07;;
40951;SDS011;26682;51.660;19.338;2022-12-15T10:43:01;145.40;;;73.75;;
40951;SDS011;26682;51.660;19.338;2022-12-15T10:45:26;139.55;;;72.07;;
40951;SDS011;26682;51.660;19.338;2022-12-15T10:47:24;137.18;;;66.72;;
40951;SDS011;26682;51.660;19.338;2022-12-15T10:52:59;160.38;;;83.15;;
40951;SDS011;26682;51.660;19.338;2022-12-15T10:54:53;151.80;;;75.55;;
40951;SDS011;26682;51.660;19.338;2022-12-15T10:58:47;127.78;;;66.43;;
40951;SDS011;26682;51.660;19.338;2022-12-15T11:02:26;130.20;;;68.10;;
40951;SDS011;26682;51.660;19.338;2022-12-15T11:04:30;120.35;;;62.15;;
40951;SDS011;26682;51.660;19.338;2022-12-15T11:06:19;135.38;;;68.32;;
40951;SDS011;26682;51.660;19.338;2022-12-15T11:08:23;129.90;;;66.28;;
40951;SDS011;26682;51.660;19.338;2022-12-15T11:10:20;135.88;;;71.03;;
40951;SDS011;26682;51.660;19.338;2022-12-15T11:12:15;126.25;;;67.53;;
40951;SDS011;26682;51.660;19.338;2022-12-15T11:14:23;142.93;;;72.63;;
40951;SDS011;26682;51.660;19.338;2022-12-15T11:16:15;132.18;;;70.38;;
40951;SDS011;26682;51.660;19.338;2022-12-15T11:18:07;124.38;;;66.00;;
40951;SDS011;26682;51.660;19.338;2022-12-15T11:20:26;137.63;;;71.68;;
40951;SDS011;26682;51.660;19.338;2022-12-15T11:24:19;134.90;;;71.40;;
40951;SDS011;26682;51.660;19.338;2022-12-15T11:28:15;129.80;;;71.00;;
40951;SDS011;26682;51.660;19.338;2022-12-15T11:30:15;140.30;;;75.53;;
40951;SDS011;26682;51.660;19.338;2022-12-15T11:32:04;135.38;;;73.60;;
40951;SDS011;26682;51.660;19.338;2022-12-15T11:33:53;153.35;;;81.97;;
40951;SDS011;26682;51.660;19.338;2022-12-15T11:37:48;133.32;;;69.85;;
40951;SDS011;26682;51.660;19.338;2022-12-15T11:40:00;117.95;;;60.65;;
40951;SDS011;26682;51.660;19.338;2022-12-15T11:41:55;121.60;;;62.03;;
40951;SDS011;26682;51.660;19.338;2022-12-15T11:43:58;122.32;;;63.80;;
40951;SDS011;26682;51.660;19.338;2022-12-15T11:46:19;126.35;;;61.55;;
40951;SDS011;26682;51.660;19.338;2022-12-15T11:48:20;94.47;;;47.83;;
40951;SDS011;26682;51.660;19.338;2022-12-15T11:50:15;128.13;;;67.10;;